Time;durP1;ratioP1;P1;durP2;ratioP2;P2;SDS_P1;SDS_P2;PMS_P1;PMS_P2;Temp;Humidity;BMP_temperature;BMP_pressure;BME280_temperature;BME280_humidity;BME280_pressure;Samples;Min_cycle;Max_cycle;Signal;HPM_P1;HPM_P2
2023/04/10 00:00:42;;;;;;;12.75;10.77;;;4.50;99.90;;;;;;5050819;28;20190;-78
2023/04/10 00:03:07;;;;;;;12.43;11.15;;;4.60;99.90;;;;;;5047407;28;20628;-78
2023/04/10 00:05:33;;;;;;;12.80;11.15;;;4.80;99.90;;;;;;5054610;28;20490;-78
2023/04/10 00:07:58;;;;;;;12.38;11.05;;;4.80;99.90;;;;;;5053375;28;20180;-78
2023/04/10 00:10:25;;;;;;;12.05;10.75;;;4.80;99.90;;;;;;5052868;28;20206;-78
2023/04/10 00:12:52;;;;;;;12.98;11.25;;;4.90;99.90;;;;;;5049656;28;20281;-78
2023/04/10 00:15:18;;;;;;;12.10;10.90;;;5.00;99.90;;;;;;5045714;28;20207;-78
2023/04/10 00:17:44;;;;;;;12.77;11.45;;;5.10;99.90;;;;;;5046900;28;20269;-78
2023/04/10 00:20:10;;;;;;;13.10;11.05;;;5.20;99.90;;;;;;5049287;28;20187;-78
2023/04/10 00:22:35;;;;;;;12.18;10.80;;;5.20;99.90;;;;;;5035179;28;20192;-78
2023/04/10 00:25:01;;;;;;;13.23;11.55;;;5.20;99.90;;;;;;5043386;28;20227;-78
2023/04/10 00:27:26;;;;;;;12.55;10.88;;;5.30;99.90;;;;;;5047978;28;20548;-77
2023/04/10 00:29:52;;;;;;;12.60;11.27;;;5.40;99.90;;;;;;5049489;28;20206;-77
2023/04/10 00:32:17;;;;;;;13.35;11.73;;;5.50;99.90;;;;;;5033420;28;20179;-77
2023/04/10 00:34:43;;;;;;;12.85;10.88;;;5.50;99.90;;;;;;5045402;28;20574;-77
2023/04/10 00:37:09;;;;;;;12.18;10.93;;;5.60;99.90;;;;;;5048948;28;20225;-78
2023/04/10 00:39:35;;;;;;;12.75;11.05;;;5.60;99.90;;;;;;5050890;28;20195;-78
2023/04/10 00:42:01;;;;;;;12.73;11.30;;;5.60;99.90;;;;;;5042267;28;20184;-79
2023/04/10 00:44:27;;;;;;;11.77;10.38;;;5.50;99.90;;;;;;5050847;28;20210;-79
2023/04/10 00:46:52;;;;;;;12.07;10.55;;;5.50;99.90;;;;;;5049410;28;20568;-78
2023/04/10 00:49:18;;;;;;;11.43;10.20;;;5.50;99.90;;;;;;5048972;28;20207;-78
2023/04/10 00:51:44;;;;;;;12.00;10.65;;;5.50;99.90;;;;;;5046266;28;20180;-78
2023/04/10 00:54:10;;;;;;;11.40;9.95;;;5.40;99.90;;;;;;5032201;28;20273;-78
2023/04/10 00:56:36;;;;;;;11.80;10.18;;;5.60;99.90;;;;;;5053855;28;20177;-78
2023/04/10 00:59:02;;;;;;;11.98;10.77;;;5.60;99.90;;;;;;5031589;28;20179;-78
2023/04/10 01:01:28;;;;;;;11.63;10.43;;;5.50;99.90;;;;;;5045391;28;20175;-78
2023/04/10 01:03:54;;;;;;;12.32;11.05;;;5.40;99.90;;;;;;5029166;28;20613;-78
2023/04/10 01:07:03;;;;;;;11.70;10.50;;;5.30;99.90;;;;;;5044531;28;20187;-78
2023/04/10 01:09:33;;;;;;;12.52;11.23;;;5.30;99.90;;;;;;4948675;28;20215;-78
2023/04/10 01:12:20;;;;;;;10.65;9.35;;;5.20;99.90;;;;;;4955025;28;20178;-78
2023/04/10 01:14:51;;;;;;;11.25;10.05;;;5.30;99.90;;;;;;5020109;28;20207;-79
2023/04/10 01:17:22;;;;;;;12.45;10.73;;;5.30;99.90;;;;;;5054676;28;20172;-78
2023/04/10 01:19:59;;;;;;;11.75;10.35;;;5.30;99.90;;;;;;5033478;28;20183;-79
2023/04/10 01:22:32;;;;;;;11.85;10.68;;;5.40;99.90;;;;;;5033885;28;20188;-79
2023/04/10 01:25:35;;;;;;;11.70;10.60;;;5.40;99.90;;;;;;5054668;28;20230;-79
2023/04/10 01:28:26;;;;;;;11.15;9.68;;;5.40;99.90;;;;;;5047658;28;20730;-78
2023/04/10 01:30:58;;;;;;;11.55;10.18;;;5.40;99.90;;;;;;5049869;28;20295;-78
2023/04/10 01:33:28;;;;;;;10.68;9.57;;;5.40;99.90;;;;;;5050501;28;20666;-78
2023/04/10 01:35:56;;;;;;;12.88;11.48;;;5.50;99.90;;;;;;5043714;28;20520;-78
2023/04/10 01:38:26;;;;;;;12.93;10.77;;;5.40;99.90;;;;;;5044480;28;20199;-78
2023/04/10 01:40:54;;;;;;;11.95;10.65;;;5.30;99.90;;;;;;5052569;28;20183;-78
2023/04/10 01:43:21;;;;;;;11.52;10.43;;;5.20;99.90;;;;;;5047393;28;20214;-77
2023/04/10 01:45:50;;;;;;;12.13;10.65;;;5.10;99.90;;;;;;5045720;28;20192;-77
2023/04/10 01:48:17;;;;;;;12.13;10.77;;;5.00;99.90;;;;;;5047362;28;20267;-77
2023/04/10 01:50:44;;;;;;;13.02;11.73;;;4.90;99.90;;;;;;5046796;28;20236;-77
2023/04/10 01:53:10;;;;;;;13.63;11.00;;;4.80;99.90;;;;;;5044246;28;20196;-77
2023/04/10 01:55:37;;;;;;;12.30;10.75;;;4.70;99.90;;;;;;5049721;28;20268;-77
2023/04/10 01:58:03;;;;;;;12.82;10.20;;;4.60;99.90;;;;;;5055213;28;20179;-77
2023/04/10 02:00:29;;;;;;;12.07;10.75;;;4.50;99.90;;;;;;5043420;28;20184;-77
2023/04/10 02:02:57;;;;;;;12.40;11.13;;;4.40;99.90;;;;;;5032837;28;20266;-77
2023/04/10 02:05:28;;;;;;;12.90;10.80;;;4.30;99.90;;;;;;5054271;28;20179;-77
2023/04/10 02:08:04;;;;;;;11.65;10.45;;;4.30;99.90;;;;;;5030825;28;20180;-77
2023/04/10 02:10:40;;;;;;;12.15;10.77;;;4.20;99.90;;;;;;5050936;28;20549;-77
2023/04/10 02:13:09;;;;;;;12.27;10.98;;;4.10;99.90;;;;;;5051982;28;20551;-77
2023/04/10 02:15:35;;;;;;;12.07;10.43;;;4.00;99.90;;;;;;5051316;28;20183;-77
2023/04/10 02:18:07;;;;;;;12.93;11.05;;;4.00;99.90;;;;;;5052083;28;20187;-77
2023/04/10 02:20:33;;;;;;;12.13;10.82;;;4.00;99.90;;;;;;5051090;28;20208;-77
2023/04/10 02:23:02;;;;;;;12.48;11.18;;;4.00;99.90;;;;;;5052539;28;20654;-77
2023/04/10 02:25:32;;;;;;;12.15;10.50;;;3.90;99.90;;;;;;5054975;28;20651;-77
2023/04/10 02:28:06;;;;;;;11.35;10.15;;;3.90;99.90;;;;;;5053067;28;20267;-77
2023/04/10 02:30:32;;;;;;;12.27;11.05;;;3.80;99.90;;;;;;5049574;28;20199;-77
2023/04/10 02:32:58;;;;;;;13.90;12.07;;;3.70;99.90;;;;;;5052634;28;20570;-77
2023/04/10 02:35:23;;;;;;;12.10;10.68;;;3.60;99.90;;;;;;5049465;28;20184;-77
2023/04/10 02:37:49;;;;;;;13.00;11.50;;;3.60;99.90;;;;;;5050593;28;20187;-77
2023/04/10 02:40:15;;;;;;;13.15;11.52;;;3.60;99.90;;;;;;5050592;28;20176;-77
2023/04/10 02:42:41;;;;;;;12.50;11.23;;;3.60;99.90;;;;;;5050982;28;20199;-77
2023/04/10 02:45:08;;;;;;;12.93;11.30;;;3.50;99.90;;;;;;5050086;28;20230;-77
2023/04/10 02:47:33;;;;;;;13.27;10.93;;;3.50;99.90;;;;;;5047685;28;20189;-77
2023/04/10 02:49:59;;;;;;;13.15;10.88;;;3.30;99.90;;;;;;5053178;28;20207;-77
2023/04/10 02:52:24;;;;;;;12.07;10.88;;;3.30;99.90;;;;;;5051683;28;20236;-77
2023/04/10 02:54:50;;;;;;;13.57;11.52;;;3.20;99.90;;;;;;5048299;28;20206;-77
2023/04/10 02:57:16;;;;;;;12.75;11.40;;;3.20;99.90;;;;;;5052001;28;20521;-78
2023/04/10 02:59:42;;;;;;;12.52;11.23;;;3.20;99.90;;;;;;5046898;28;20185;-78
2023/04/10 03:02:08;;;;;;;12.27;10.98;;;3.10;99.90;;;;;;5050648;28;20664;-78
2023/04/10 03:04:33;;;;;;;13.10;11.27;;;3.10;99.90;;;;;;5051376;28;20207;-79
2023/04/10 03:06:59;;;;;;;13.25;11.77;;;3.10;99.90;;;;;;5038859;28;20196;-78
2023/04/10 03:09:25;;;;;;;12.32;11.10;;;3.00;99.90;;;;;;5056966;28;20678;-79
2023/04/10 03:11:51;;;;;;;12.70;10.38;;;3.00;99.90;;;;;;5039646;28;20184;-79
2023/04/10 03:14:16;;;;;;;12.88;10.70;;;3.00;99.90;;;;;;5042376;28;20247;-78
2023/04/10 03:16:42;;;;;;;13.40;10.57;;;3.00;99.90;;;;;;5042754;28;20172;-78
2023/04/10 03:19:08;;;;;;;12.50;10.27;;;3.00;99.90;;;;;;5040996;28;20167;-78
2023/04/10 03:21:34;;;;;;;12.20;10.93;;;3.00;99.90;;;;;;5049775;28;20202;-78
2023/04/10 03:23:59;;;;;;;13.18;10.68;;;3.00;99.90;;;;;;5045874;28;20679;-79
2023/04/10 03:26:25;;;;;;;12.13;10.52;;;3.00;99.90;;;;;;5050514;28;20176;-78
2023/04/10 03:28:51;;;;;;;11.82;10.52;;;3.00;99.90;;;;;;5050952;28;20212;-78
2023/04/10 03:31:16;;;;;;;13.23;10.93;;;3.00;99.90;;;;;;5043743;28;20184;-78
2023/04/10 03:33:42;;;;;;;11.68;10.50;;;3.00;99.90;;;;;;5047092;28;20200;-78
2023/04/10 03:36:08;;;;;;;11.70;9.95;;;2.90;99.90;;;;;;5043680;28;20204;-78
2023/04/10 03:38:33;;;;;;;13.48;11.02;;;3.00;99.90;;;;;;5049084;28;20179;-77
2023/04/10 03:40:59;;;;;;;15.27;11.77;;;2.90;99.90;;;;;;5050518;28;20294;-77
2023/04/10 03:43:25;;;;;;;12.63;11.32;;;2.90;99.90;;;;;;5048862;28;20189;-77
2023/04/10 03:45:50;;;;;;;11.90;10.57;;;2.80;99.90;;;;;;5051641;28;20179;-77
2023/04/10 03:48:16;;;;;;;12.18;10.88;;;2.70;99.90;;;;;;5039383;28;20685;-77
2023/04/10 03:50:42;;;;;;;13.60;11.80;;;2.70;99.90;;;;;;5045066;28;20349;-77
2023/04/10 03:53:08;;;;;;;13.88;10.93;;;2.70;99.90;;;;;;5046930;28;20274;-77
2023/04/10 03:55:34;;;;;;;12.07;10.20;;;2.70;99.90;;;;;;5048169;28;20254;-77
2023/04/10 03:57:59;;;;;;;12.15;10.85;;;2.70;99.90;;;;;;5024651;28;20229;-78
2023/04/10 04:00:26;;;;;;;13.90;12.27;;;2.80;99.90;;;;;;5049508;28;20279;-78
2023/04/10 04:02:52;;;;;;;12.00;10.80;;;2.90;99.90;;;;;;5046225;28;20184;-78
2023/04/10 04:05:18;;;;;;;11.85;10.68;;;2.90;99.90;;;;;;5042162;28;20678;-78
2023/04/10 04:07:44;;;;;;;13.82;11.30;;;3.00;99.90;;;;;;5049749;28;20188;-78
2023/04/10 04:10:09;;;;;;;12.73;11.20;;;3.10;99.90;;;;;;5045834;28;20211;-78
2023/04/10 04:12:35;;;;;;;13.27;10.57;;;3.20;99.90;;;;;;5043881;28;20186;-78
2023/04/10 04:15:01;;;;;;;11.93;10.73;;;3.20;99.90;;;;;;5050530;28;20218;-78
2023/04/10 04:17:26;;;;;;;13.32;11.13;;;3.40;99.90;;;;;;5043260;28;20181;-78
2023/04/10 04:19:52;;;;;;;13.70;12.30;;;3.50;99.90;;;;;;5045058;28;20705;-78
2023/04/10 04:22:19;;;;;;;13.60;12.07;;;3.60;99.90;;;;;;5043378;28;20592;-78
2023/04/10 04:24:44;;;;;;;13.60;11.45;;;3.60;99.90;;;;;;5048898;28;20295;-78
2023/04/10 04:27:10;;;;;;;12.80;11.40;;;3.60;99.90;;;;;;5029103;28;20631;-78
2023/04/10 04:29:36;;;;;;;15.20;12.27;;;3.60;99.90;;;;;;5044423;28;20214;-78
2023/04/10 04:32:01;;;;;;;13.35;11.43;;;3.60;99.90;;;;;;5027629;28;20233;-78
2023/04/10 04:34:27;;;;;;;12.35;11.02;;;3.60;99.90;;;;;;5045293;28;20189;-78
2023/04/10 04:36:52;;;;;;;12.70;11.15;;;3.60;99.90;;;;;;5043795;28;20176;-78
2023/04/10 04:39:19;;;;;;;14.35;11.65;;;3.50;99.90;;;;;;5041498;28;20600;-78
2023/04/10 04:41:44;;;;;;;12.98;11.38;;;3.60;99.90;;;;;;5043322;28;20238;-78
2023/04/10 04:44:10;;;;;;;11.70;10.48;;;3.70;99.90;;;;;;5048083;28;20203;-78
2023/04/10 04:46:36;;;;;;;12.63;10.25;;;3.70;99.90;;;;;;5044404;28;20180;-78
2023/04/10 04:49:02;;;;;;;13.20;11.50;;;3.80;99.90;;;;;;5048555;28;20266;-79
2023/04/10 04:51:27;;;;;;;11.98;10.68;;;3.90;99.90;;;;;;5044269;28;20184;-78
2023/04/10 04:53:53;;;;;;;11.45;10.25;;;3.90;99.90;;;;;;5042476;28;20199;-79
2023/04/10 04:56:18;;;;;;;12.30;10.63;;;4.00;99.90;;;;;;5046179;28;20713;-79
2023/04/10 04:58:44;;;;;;;12.95;11.18;;;4.10;99.90;;;;;;5047885;28;20226;-78
2023/04/10 05:01:10;;;;;;;11.75;10.55;;;4.10;99.90;;;;;;5049612;28;20260;-78
2023/04/10 05:03:35;;;;;;;12.23;10.95;;;4.20;99.90;;;;;;5050133;28;20230;-78
2023/04/10 05:06:01;;;;;;;12.70;10.98;;;4.20;99.90;;;;;;5048402;28;20187;-79
2023/04/10 05:08:27;;;;;;;11.30;10.25;;;4.30;99.90;;;;;;5048592;28;20188;-79
2023/04/10 05:10:52;;;;;;;12.25;10.75;;;4.40;99.90;;;;;;5038949;28;20583;-79
2023/04/10 05:13:18;;;;;;;11.10;10.00;;;4.50;99.90;;;;;;5050396;28;20330;-78
2023/04/10 05:15:44;;;;;;;11.95;10.73;;;4.40;99.90;;;;;;5031577;28;20187;-79
2023/04/10 05:18:10;;;;;;;10.85;9.75;;;4.40;99.90;;;;;;5030310;28;20168;-79
2023/04/10 05:20:35;;;;;;;11.93;10.32;;;4.40;99.90;;;;;;5033060;28;20195;-79
2023/04/10 05:23:01;;;;;;;11.15;9.88;;;4.40;99.90;;;;;;5035764;28;20230;-79
2023/04/10 05:25:27;;;;;;;10.82;9.50;;;4.40;99.90;;;;;;5046854;28;20173;-79
2023/04/10 05:27:52;;;;;;;12.80;10.18;;;4.40;99.90;;;;;;5035110;28;20569;-78
2023/04/10 05:30:18;;;;;;;12.00;10.30;;;4.40;99.90;;;;;;5045063;28;20203;-78
2023/04/10 05:32:44;;;;;;;11.35;10.15;;;4.40;99.90;;;;;;5039618;28;20275;-77
2023/04/10 05:35:10;;;;;;;11.55;10.35;;;4.40;99.90;;;;;;5045916;28;20195;-77
2023/04/10 05:37:36;;;;;;;11.07;10.05;;;4.40;99.90;;;;;;5046856;28;20183;-77
2023/04/10 05:40:02;;;;;;;12.48;10.73;;;4.40;99.90;;;;;;5043967;28;20251;-77
2023/04/10 05:42:27;;;;;;;11.73;10.52;;;4.40;99.90;;;;;;5047987;28;20255;-77
2023/04/10 05:44:53;;;;;;;12.15;10.70;;;4.50;99.90;;;;;;5037834;28;20813;-77
2023/04/10 05:47:19;;;;;;;11.30;10.18;;;4.50;99.90;;;;;;5041819;28;20215;-77
2023/04/10 05:49:44;;;;;;;11.55;10.05;;;4.50;99.90;;;;;;5037587;28;20849;-77
2023/04/10 05:52:10;;;;;;;11.77;10.57;;;4.60;99.90;;;;;;5053698;28;20172;-77
2023/04/10 05:54:35;;;;;;;11.85;10.60;;;4.70;99.90;;;;;;5051360;28;20703;-78
2023/04/10 05:57:01;;;;;;;12.35;10.55;;;4.80;99.90;;;;;;5052149;28;20571;-78
2023/04/10 05:59:27;;;;;;;12.20;10.90;;;4.70;99.90;;;;;;5047680;28;20276;-78
2023/04/10 06:01:52;;;;;;;12.60;11.23;;;4.80;99.90;;;;;;5034577;28;20195;-78
2023/04/10 06:04:20;;;;;;;13.07;11.13;;;4.80;99.90;;;;;;5037479;28;20295;-78
2023/04/10 06:06:45;;;;;;;12.48;11.20;;;4.90;99.90;;;;;;5046083;28;20176;-78
2023/04/10 06:09:11;;;;;;;12.75;11.45;;;5.00;99.90;;;;;;5053634;28;20191;-78
2023/04/10 06:11:36;;;;;;;13.38;11.98;;;5.10;99.90;;;;;;5047555;28;20183;-78
2023/04/10 06:14:02;;;;;;;13.88;12.40;;;5.20;99.90;;;;;;5054990;28;20223;-78
2023/04/10 06:16:28;;;;;;;13.35;11.95;;;5.30;99.90;;;;;;5049761;28;20175;-78
2023/04/10 06:18:53;;;;;;;13.27;11.85;;;5.40;99.90;;;;;;5049809;28;20941;-78
2023/04/10 06:21:19;;;;;;;14.77;12.18;;;5.50;99.90;;;;;;5046670;28;20286;-78
2023/04/10 06:23:45;;;;;;;13.82;12.40;;;5.60;99.90;;;;;;5050446;28;20223;-78
2023/04/10 06:26:11;;;;;;;14.20;12.73;;;5.70;99.90;;;;;;5053734;28;20184;-78
2023/04/10 06:28:36;;;;;;;14.57;13.07;;;5.80;99.90;;;;;;5045345;28;20180;-77
2023/04/10 06:31:03;;;;;;;15.38;13.35;;;5.90;99.90;;;;;;5049339;28;20204;-78
2023/04/10 06:33:28;;;;;;;14.82;13.25;;;5.90;99.90;;;;;;5048603;28;20641;-77
2023/04/10 06:35:54;;;;;;;14.38;12.90;;;6.00;99.90;;;;;;5051609;28;20175;-77
2023/04/10 06:38:20;;;;;;;14.07;12.63;;;6.10;99.90;;;;;;5048768;28;20179;-77
2023/04/10 06:40:46;;;;;;;15.18;13.30;;;6.20;99.90;;;;;;5050057;28;20195;-77
2023/04/10 06:43:11;;;;;;;14.52;12.98;;;6.30;99.90;;;;;;5051371;28;20203;-77
2023/04/10 06:45:37;;;;;;;13.07;11.70;;;6.40;99.90;;;;;;5054471;28;20267;-78
2023/04/10 06:48:03;;;;;;;14.07;12.27;;;6.50;99.90;;;;;;5049939;28;20218;-78
2023/04/10 06:50:29;;;;;;;15.88;14.23;;;6.60;99.90;;;;;;5051332;28;20281;-77
2023/04/10 06:52:58;;;;;;;14.30;12.80;;;6.70;99.90;;;;;;5049944;28;20167;-77
2023/04/10 06:55:27;;;;;;;15.30;13.63;;;6.70;99.90;;;;;;5053822;28;20176;-78
2023/04/10 06:57:54;;;;;;;15.95;13.85;;;6.80;99.90;;;;;;5055987;28;20233;-78
2023/04/10 07:00:20;;;;;;;15.32;12.68;;;6.80;99.90;;;;;;5047688;28;20668;-78
2023/04/10 07:02:46;;;;;;;14.07;12.63;;;6.80;99.90;;;;;;5045186;28;20214;-78
2023/04/10 07:05:13;;;;;;;14.02;12.55;;;7.00;99.90;;;;;;5048654;28;20183;-78
2023/04/10 07:07:38;;;;;;;15.25;13.30;;;7.10;99.90;;;;;;5048664;28;20176;-78
2023/04/10 07:10:05;;;;;;;13.18;11.80;;;7.20;99.90;;;;;;5046812;28;20270;-78
2023/04/10 07:12:31;;;;;;;14.38;12.63;;;7.30;99.90;;;;;;5052905;28;20239;-79
2023/04/10 07:14:57;;;;;;;13.32;12.02;;;7.40;99.90;;;;;;5066007;28;20219;-79
2023/04/10 07:17:23;;;;;;;14.60;13.02;;;7.50;99.90;;;;;;5060754;28;20187;-79
2023/04/10 07:19:48;;;;;;;14.13;12.63;;;7.60;99.90;;;;;;5054753;28;20187;-79
2023/04/10 07:22:14;;;;;;;14.15;12.65;;;7.70;99.90;;;;;;5040597;28;20187;-79
2023/04/10 07:24:40;;;;;;;15.05;13.45;;;7.70;99.90;;;;;;5060837;28;20252;-79
2023/04/10 07:27:05;;;;;;;15.63;13.95;;;7.70;99.90;;;;;;5059626;28;20199;-79
2023/04/10 07:29:31;;;;;;;15.23;13.65;;;7.70;99.90;;;;;;5051874;28;20208;-78
2023/04/10 07:31:57;;;;;;;14.35;12.70;;;7.70;99.90;;;;;;5050502;28;20239;-78
2023/04/10 07:34:22;;;;;;;14.73;13.18;;;7.80;99.90;;;;;;5053074;28;20200;-79
2023/04/10 07:36:48;;;;;;;14.80;13.20;;;7.90;99.90;;;;;;5050471;28;20242;-78
2023/04/10 07:39:14;;;;;;;14.15;12.75;;;8.10;99.90;;;;;;5034337;28;20215;-78
2023/04/10 07:41:40;;;;;;;16.73;13.90;;;8.10;99.90;;;;;;5050382;28;20171;-78
2023/04/10 07:44:05;;;;;;;15.00;13.40;;;8.20;99.90;;;;;;5064496;28;20203;-79
2023/04/10 07:46:31;;;;;;;14.43;12.82;;;8.20;99.90;;;;;;5041922;28;20180;-79
2023/04/10 07:48:57;;;;;;;14.93;13.32;;;8.30;99.90;;;;;;5059463;28;20172;-78
2023/04/10 07:51:22;;;;;;;16.88;14.82;;;8.40;99.90;;;;;;5059395;28;20274;-79
2023/04/10 07:53:48;;;;;;;14.82;13.30;;;8.40;99.90;;;;;;5057196;28;20200;-79
2023/04/10 07:56:16;;;;;;;15.32;13.63;;;8.50;99.90;;;;;;5036095;28;20188;-78
2023/04/10 07:58:42;;;;;;;15.82;13.57;;;8.60;99.90;;;;;;5041474;28;20188;-79
2023/04/10 08:01:07;;;;;;;16.38;14.30;;;8.80;99.90;;;;;;5064072;28;20176;-79
2023/04/10 08:03:41;;;;;;;16.65;14.90;;;9.00;99.90;;;;;;5053380;28;20200;-79
2023/04/10 08:06:08;;;;;;;16.77;14.40;;;9.00;99.90;;;;;;5051209;28;20226;-79
2023/04/10 08:08:35;;;;;;;15.93;14.23;;;8.90;99.90;;;;;;5051321;28;20242;-78
2023/04/10 08:11:02;;;;;;;16.63;14.15;;;9.00;99.90;;;;;;5053104;28;20199;-78
2023/04/10 08:13:27;;;;;;;16.10;14.05;;;9.00;99.90;;;;;;5068103;28;20198;-78
2023/04/10 08:15:53;;;;;;;16.15;14.35;;;9.20;99.90;;;;;;5061452;28;20191;-79
2023/04/10 08:18:18;;;;;;;15.65;13.95;;;9.20;99.90;;;;;;5060280;28;20254;-78
2023/04/10 08:20:44;;;;;;;16.20;14.27;;;9.20;99.90;;;;;;5050426;28;20196;-79
2023/04/10 08:23:10;;;;;;;14.55;12.88;;;9.10;99.90;;;;;;5057218;28;20196;-79
2023/04/10 08:25:35;;;;;;;15.77;13.60;;;9.30;99.90;;;;;;5042257;28;20183;-79
2023/04/10 08:28:01;;;;;;;15.45;13.20;;;9.50;99.90;;;;;;5059629;28;20184;-78
2023/04/10 08:30:26;;;;;;;15.82;13.60;;;9.80;99.90;;;;;;5057735;28;20306;-78
2023/04/10 08:32:52;;;;;;;16.20;14.38;;;10.00;99.90;;;;;;5054974;28;20196;-79
2023/04/10 08:35:18;;;;;;;15.60;13.52;;;10.20;99.90;;;;;;5066505;28;20355;-79
2023/04/10 08:37:43;;;;;;;13.40;12.00;;;10.30;99.90;;;;;;5064319;28;20179;-79
2023/04/10 08:40:09;;;;;;;13.40;11.95;;;10.40;99.90;;;;;;5048400;28;20196;-78
2023/04/10 08:42:35;;;;;;;13.20;11.80;;;10.40;99.90;;;;;;5039134;28;20650;-78
2023/04/10 08:45:01;;;;;;;13.82;12.43;;;10.60;99.90;;;;;;5047374;28;20710;-79
2023/04/10 08:47:28;;;;;;;12.07;10.88;;;10.80;99.90;;;;;;5045462;28;20675;-78
2023/04/10 08:49:56;;;;;;;14.00;12.43;;;11.00;99.90;;;;;;5032316;28;20207;-78
2023/04/10 08:52:24;;;;;;;14.00;12.65;;;11.20;99.90;;;;;;5047749;28;20184;-78
2023/04/10 08:54:54;;;;;;;13.57;12.10;;;11.40;99.90;;;;;;5037116;28;20188;-78
2023/04/10 08:57:21;;;;;;;13.60;12.20;;;11.60;99.90;;;;;;5044154;28;20233;-78
2023/04/10 08:59:47;;;;;;;13.02;11.70;;;11.80;99.90;;;;;;5048695;28;20191;-78
2023/04/10 09:02:13;;;;;;;13.98;12.57;;;12.00;99.90;;;;;;5050323;28;20188;-79
2023/04/10 09:04:44;;;;;;;11.82;10.63;;;12.10;99.90;;;;;;5053631;28;20242;-79
2023/04/10 09:07:10;;;;;;;12.68;11.38;;;12.50;99.90;;;;;;5046045;28;20183;-78
2023/04/10 09:09:35;;;;;;;12.98;11.57;;;12.90;99.90;;;;;;5045146;28;20200;-79
2023/04/10 09:12:03;;;;;;;11.73;10.63;;;14.50;99.90;;;;;;5043870;28;20165;-78
2023/04/10 09:14:30;;;;;;;12.23;11.00;;;17.10;99.90;;;;;;5042364;28;20214;-79
2023/04/10 09:17:20;;;;;;;12.25;11.07;;;19.80;92.10;;;;;;5057566;28;20229;-77
2023/04/10 09:19:51;;;;;;;13.30;12.00;;;19.30;85.90;;;;;;5036736;28;20184;-79
2023/04/10 09:22:27;;;;;;;11.85;10.75;;;21.50;79.90;;;;;;5049224;28;20688;-79
2023/04/10 09:24:53;;;;;;;12.00;10.90;;;23.30;72.50;;;;;;5035926;28;20619;-79
2023/04/10 09:27:36;;;;;;;10.40;9.40;;;21.70;67.90;;;;;;5047606;28;20212;-80
2023/04/10 09:30:03;;;;;;;11.07;10.05;;;22.20;68.40;;;;;;5060255;28;20245;-79
2023/04/10 09:32:37;;;;;;;11.20;10.10;;;21.90;66.50;;;;;;5060799;28;20199;-81
2023/04/10 09:35:04;;;;;;;11.20;10.20;;;21.40;66.50;;;;;;5055285;28;20694;-79
2023/04/10 09:37:31;;;;;;;11.05;9.95;;;21.70;67.50;;;;;;5056541;28;20227;-79
2023/04/10 09:39:57;;;;;;;10.75;9.65;;;24.10;61.70;;;;;;5037394;28;20190;-79
2023/04/10 09:42:34;;;;;;;9.40;8.60;;;26.30;57.30;;;;;;5046523;28;20188;-78
2023/04/10 09:45:00;;;;;;;9.48;8.70;;;25.60;54.50;;;;;;5050149;28;20196;-78
2023/04/10 09:47:26;;;;;;;9.90;9.10;;;24.20;55.20;;;;;;5048487;28;20180;-79
2023/04/10 09:49:54;;;;;;;9.85;8.98;;;24.10;56.90;;;;;;5046857;28;20200;-79
2023/04/10 09:52:25;;;;;;;10.35;9.45;;;24.50;55.90;;;;;;5052766;28;20540;-79
2023/04/10 09:54:59;;;;;;;9.77;8.98;;;23.90;56.00;;;;;;5061737;28;20211;-79
2023/04/10 09:57:28;;;;;;;9.68;8.88;;;23.90;56.60;;;;;;5043336;28;20251;-79
2023/04/10 09:59:59;;;;;;;8.90;8.20;;;24.50;56.40;;;;;;5060809;28;20180;-79
2023/04/10 10:02:29;;;;;;;9.02;8.32;;;24.80;52.60;;;;;;5047105;28;20230;-79
2023/04/10 10:04:59;;;;;;;9.55;8.75;;;23.30;55.00;;;;;;5060453;28;20211;-79
2023/04/10 10:07:25;;;;;;;9.45;8.65;;;22.30;55.00;;;;;;5058286;28;20180;-79
2023/04/10 10:09:51;;;;;;;9.05;8.25;;;23.20;55.90;;;;;;5042846;28;20209;-79
2023/04/10 10:12:34;;;;;;;8.45;7.75;;;23.60;55.80;;;;;;5056952;28;20183;-80
2023/04/10 10:15:05;;;;;;;8.43;7.72;;;26.40;53.80;;;;;;5048387;28;20791;-80
2023/04/10 10:17:37;;;;;;;8.45;7.75;;;29.70;48.70;;;;;;5050362;28;20695;-79
2023/04/10 10:20:10;;;;;;;8.48;7.78;;;32.10;44.10;;;;;;5046246;28;20189;-78
2023/04/10 10:22:37;;;;;;;9.55;8.77;;;29.70;44.60;;;;;;5051795;28;20180;-79
2023/04/10 10:25:03;;;;;;;8.65;7.85;;;28.00;45.10;;;;;;5030315;28;20238;-79
2023/04/10 10:27:36;;;;;;;9.35;8.55;;;26.90;47.30;;;;;;5051598;28;20658;-79
2023/04/10 10:30:02;;;;;;;9.05;8.35;;;25.20;49.30;;;;;;5045857;28;20546;-79
2023/04/10 10:32:29;;;;;;;8.30;7.70;;;26.70;49.90;;;;;;5033775;28;20598;-79
2023/04/10 10:34:56;;;;;;;8.75;8.05;;;30.40;46.50;;;;;;5041320;28;20283;-77
2023/04/10 10:37:22;;;;;;;8.02;7.32;;;30.70;42.90;;;;;;5045698;28;20168;-76
2023/04/10 10:40:02;;;;;;;7.85;7.30;;;31.10;42.20;;;;;;5030252;28;20532;-76
2023/04/10 10:42:37;;;;;;;8.18;7.57;;;29.90;42.20;;;;;;5051534;28;20686;-77
2023/04/10 10:45:08;;;;;;;8.60;7.90;;;28.00;44.20;;;;;;5051363;28;20221;-76
2023/04/10 10:47:43;;;;;;;7.88;7.28;;;26.10;46.90;;;;;;5055776;28;20175;-76
2023/04/10 10:50:09;;;;;;;7.85;7.25;;;25.20;47.70;;;;;;5046741;28;20203;-76
2023/04/10 10:52:45;;;;;;;8.13;7.53;;;25.70;48.50;;;;;;5052580;28;20183;-77
2023/04/10 10:55:35;;;;;;;7.85;7.25;;;26.30;46.90;;;;;;5049964;28;20196;-78
2023/04/10 10:58:04;;;;;;;7.57;6.97;;;27.40;46.30;;;;;;5047953;28;20178;-78
2023/04/10 11:00:51;;;;;;;7.65;7.05;;;27.10;45.30;;;;;;5046399;28;20262;-79
2023/04/10 11:03:17;;;;;;;7.47;6.97;;;26.00;45.50;;;;;;5044571;28;20704;-78
2023/04/10 11:06:02;;;;;;;7.35;6.70;;;27.10;47.10;;;;;;5052081;28;20278;-79
2023/04/10 11:08:46;;;;;;;7.63;7.03;;;30.20;43.10;;;;;;5037024;28;20221;-79
2023/04/10 11:11:26;;;;;;;8.27;7.68;;;28.90;42.50;;;;;;5039894;28;20219;-79
2023/04/10 11:13:51;;;;;;;8.00;7.40;;;28.70;43.20;;;;;;5048198;28;20191;-78
2023/04/10 11:16:21;;;;;;;8.20;7.60;;;30.00;42.50;;;;;;5049987;28;20175;-78
2023/04/10 11:18:50;;;;;;;8.43;7.75;;;30.30;42.00;;;;;;5046988;28;20172;-78
2023/04/10 11:21:17;;;;;;;8.18;7.57;;;31.10;40.60;;;;;;5035008;28;20202;-78
2023/04/10 11:23:49;;;;;;;7.95;7.22;;;27.20;44.60;;;;;;5044205;28;20698;-78
2023/04/10 11:26:40;;;;;;;7.65;7.05;;;26.10;45.80;;;;;;5040164;28;20180;-78
2023/04/10 11:29:12;;;;;;;6.68;6.18;;;25.30;47.50;;;;;;5052701;28;20205;-78
2023/04/10 11:31:39;;;;;;;7.00;6.50;;;26.70;45.00;;;;;;5048607;28;20203;-78
2023/04/10 11:34:06;;;;;;;7.55;6.85;;;27.50;43.30;;;;;;5030664;28;20194;-78
2023/04/10 11:36:33;;;;;;;7.32;6.82;;;26.40;44.80;;;;;;5025836;28;20540;-77
2023/04/10 11:39:01;;;;;;;7.57;7.00;;;25.30;46.20;;;;;;5049142;28;21319;-78
2023/04/10 11:41:32;;;;;;;7.68;7.18;;;27.00;46.30;;;;;;5028831;28;20211;-77
2023/04/10 11:43:59;;;;;;;7.55;6.95;;;27.60;43.20;;;;;;5045847;28;20792;-78
2023/04/10 11:46:25;;;;;;;7.68;7.07;;;27.30;46.10;;;;;;5051595;28;20184;-78
2023/04/10 11:48:56;;;;;;;7.50;6.95;;;29.50;43.60;;;;;;5063559;28;20190;-78
2023/04/10 11:51:21;;;;;;;7.50;6.90;;;30.00;40.40;;;;;;5044896;28;20208;-77
2023/04/10 11:53:47;;;;;;;6.97;6.47;;;29.60;40.20;;;;;;5048660;28;20282;-78
2023/04/10 11:56:20;;;;;;;6.97;6.47;;;29.10;43.80;;;;;;5042758;28;20584;-78
2023/04/10 11:58:49;;;;;;;7.40;6.82;;;31.50;41.90;;;;;;5037185;28;20176;-78
2023/04/10 12:01:15;;;;;;;6.68;6.18;;;30.10;41.40;;;;;;5045341;28;20194;-78
2023/04/10 12:03:42;;;;;;;6.80;6.30;;;29.40;42.70;;;;;;5053998;28;20187;-78
2023/04/10 12:06:12;;;;;;;5.95;5.55;;;29.60;42.20;;;;;;5048809;28;20178;-78
2023/04/10 12:08:44;;;;;;;6.80;6.30;;;30.30;39.70;;;;;;5045996;28;20253;-78
2023/04/10 12:11:11;;;;;;;6.88;6.32;;;30.20;41.10;;;;;;5041331;28;20256;-78
2023/04/10 12:13:37;;;;;;;5.72;5.35;;;29.90;41.20;;;;;;5031790;28;20191;-78
2023/04/10 12:16:06;;;;;;;5.65;5.28;;;30.30;41.90;;;;;;5050067;28;20186;-76
2023/04/10 12:18:33;;;;;;;6.25;5.85;;;30.00;41.00;;;;;;5028918;28;20172;-76
2023/04/10 12:20:59;;;;;;;6.22;5.82;;;27.90;42.60;;;;;;5042230;28;20206;-76
2023/04/10 12:23:29;;;;;;;5.45;5.05;;;29.20;41.70;;;;;;5048776;28;20277;-76
2023/04/10 12:26:23;;;;;;;6.22;5.82;;;29.70;40.60;;;;;;5048880;28;20670;-76
2023/04/10 12:28:54;;;;;;;5.60;5.20;;;29.20;40.90;;;;;;5026343;28;20195;-75
2023/04/10 12:31:31;;;;;;;6.15;5.75;;;30.70;39.80;;;;;;5043158;28;20227;-76
2023/04/10 12:33:58;;;;;;;5.10;4.80;;;32.40;38.90;;;;;;5048483;28;20276;-76
2023/04/10 12:36:28;;;;;;;5.00;4.60;;;31.90;37.80;;;;;;5048802;28;20206;-76
2023/04/10 12:38:54;;;;;;;4.47;4.20;;;30.10;37.40;;;;;;5032736;28;20237;-75
2023/04/10 12:41:22;;;;;;;5.00;4.70;;;27.10;39.50;;;;;;5052873;28;20171;-76